Terminal Aerodrome Forecast
Issued by NWS

Home | Current Version | Previous Version | Text Only | Print | Product List | Glossary On
Versions: 1 2 3 4 5 6 7 8 9 10 11 12 13 14 15 16 17 18 19 20
000
FTUS43 KGRB 020500
TAFCWA
TAF
KCWA 020520Z 0206/0306 20013G22KT P6SM SCT080 BKN120 WS010/20040KT
     FM020700 22014G23KT 6SM -RA SCT040 OVC070 WS010/22045KT
      TEMPO 0207/0209 4SM TSRA BR BKN040 OVC060CB
     FM021100 30010KT P6SM OVC080
     FM021500 29011G18KT P6SM BKN200
     FM022000 27017G26KT P6SM SCT250
     FM030100 28010KT P6SM SCT250
      AMD LTD TO CLD VIS AND WIND TIL 021200=

USA.gov is the U.S. government's official web portal to all federal, state and local government web resources and services.